Time;durP1;ratioP1;P1;durP2;ratioP2;P2;SDS_P1;SDS_P2;PMS_P1;PMS_P2;Temp;Humidity;BMP_temperature;BMP_pressure;BME280_temperature;BME280_humidity;BME280_pressure;Samples;Min_cycle;Max_cycle;Signal;HPM_P1;HPM_P2
2022/01/07 00:01:06;;;;;;;0.93;0.82;;;2.70;99.90;;;;;;4968685;28;20517;-66
2022/01/07 00:03:32;;;;;;;2.40;1.23;;;2.70;99.90;;;;;;4967586;28;20050;-67
2022/01/07 00:06:01;;;;;;;6.22;5.03;;;2.70;99.90;;;;;;4967896;28;20427;-66
2022/01/07 00:08:27;;;;;;;5.90;2.33;;;2.70;99.90;;;;;;4964716;28;20035;-66
2022/01/07 00:10:53;;;;;;;5.05;2.00;;;2.80;99.90;;;;;;4978646;28;20035;-66
2022/01/07 00:13:19;;;;;;;2.55;1.25;;;2.80;99.90;;;;;;4964757;28;20475;-66
2022/01/07 00:15:45;;;;;;;4.20;2.35;;;2.80;99.90;;;;;;4963118;28;20035;-66
2022/01/07 00:18:11;;;;;;;3.13;1.17;;;2.80;99.90;;;;;;4964185;28;20447;-66
2022/01/07 00:20:38;;;;;;;2.53;1.25;;;2.90;99.90;;;;;;4978006;28;20037;-66
2022/01/07 00:23:05;;;;;;;1.00;0.82;;;2.90;99.90;;;;;;4968883;28;20034;-66
2022/01/07 00:25:31;;;;;;;5.10;2.17;;;2.90;99.90;;;;;;4963833;28;20035;-66
2022/01/07 00:27:57;;;;;;;3.88;1.58;;;2.90;99.90;;;;;;4960741;28;20042;-66
2022/01/07 00:30:23;;;;;;;3.80;1.88;;;2.90;99.90;;;;;;4965946;28;20037;-66
2022/01/07 00:32:49;;;;;;;1.33;1.10;;;2.90;99.90;;;;;;4966604;28;20030;-66
2022/01/07 00:35:16;;;;;;;4.40;1.38;;;2.90;99.90;;;;;;4965199;28;20026;-67
2022/01/07 00:37:43;;;;;;;2.40;1.38;;;3.00;99.90;;;;;;4968584;28;20054;-66
2022/01/07 00:40:17;;;;;;;13.80;1.48;;;2.90;99.90;;;;;;4967750;28;20390;-67
2022/01/07 00:42:45;;;;;;;1.88;1.23;;;3.00;99.90;;;;;;4965373;28;20661;-66
2022/01/07 00:45:11;;;;;;;3.92;1.70;;;2.90;99.90;;;;;;4977224;28;20036;-66
2022/01/07 00:47:37;;;;;;;1.83;1.08;;;3.00;99.90;;;;;;4962987;28;20047;-66
2022/01/07 00:50:04;;;;;;;2.15;1.17;;;3.00;99.90;;;;;;4966390;28;20446;-66
2022/01/07 00:52:30;;;;;;;3.13;2.85;;;3.00;99.90;;;;;;4967196;28;20042;-66
2022/01/07 00:54:55;;;;;;;4.72;1.02;;;3.00;99.90;;;;;;4963348;28;20074;-66
2022/01/07 00:57:21;;;;;;;5.57;2.00;;;3.10;99.90;;;;;;4970686;28;20113;-66
2022/01/07 00:59:47;;;;;;;5.43;1.83;;;3.10;99.90;;;;;;4966844;28;20094;-66
2022/01/07 01:02:14;;;;;;;5.22;2.00;;;3.00;99.90;;;;;;4966995;28;20102;-66
2022/01/07 01:04:40;;;;;;;3.05;1.55;;;3.10;99.90;;;;;;4962115;28;20403;-66
2022/01/07 01:07:05;;;;;;;6.55;2.10;;;3.10;99.90;;;;;;4967559;28;20071;-66
2022/01/07 01:09:31;;;;;;;8.85;1.65;;;3.10;99.90;;;;;;4969712;28;20104;-66
2022/01/07 01:11:57;;;;;;;4.40;1.95;;;3.10;99.90;;;;;;4970305;28;20065;-66
2022/01/07 01:14:24;;;;;;;2.67;1.23;;;3.10;99.90;;;;;;4970341;28;20034;-67
2022/01/07 01:16:51;;;;;;;1.27;1.10;;;3.20;99.90;;;;;;4967300;28;20407;-66
2022/01/07 01:19:17;;;;;;;4.95;1.90;;;3.20;99.90;;;;;;4964828;28;20475;-66
2022/01/07 01:21:43;;;;;;;8.15;1.45;;;3.10;99.90;;;;;;4965526;28;20042;-66
2022/01/07 01:24:09;;;;;;;4.30;1.75;;;3.10;99.90;;;;;;4968014;28;20059;-66
2022/01/07 01:26:35;;;;;;;3.03;1.35;;;3.10;99.90;;;;;;4966128;28;20071;-66
2022/01/07 01:29:01;;;;;;;5.45;1.63;;;3.20;99.90;;;;;;4964590;28;20031;-66
2022/01/07 01:31:26;;;;;;;2.38;1.20;;;3.20;99.90;;;;;;4965808;28;20034;-66
2022/01/07 01:33:52;;;;;;;2.65;1.92;;;3.20;99.90;;;;;;4960586;28;20033;-66
2022/01/07 01:36:17;;;;;;;11.38;1.38;;;3.20;99.90;;;;;;4958102;28;20051;-66
2022/01/07 01:38:43;;;;;;;7.28;2.13;;;3.20;99.90;;;;;;4959890;28;20479;-66
2022/01/07 01:41:09;;;;;;;1.30;1.02;;;3.20;99.90;;;;;;4962162;28;20035;-66
2022/01/07 01:43:35;;;;;;;1.98;1.42;;;3.20;99.90;;;;;;4966416;28;20020;-66
2022/01/07 01:46:01;;;;;;;1.67;1.10;;;3.20;99.90;;;;;;4966770;28;20085;-66
2022/01/07 01:48:27;;;;;;;2.90;1.13;;;3.30;99.90;;;;;;4967072;28;20086;-66
2022/01/07 01:50:56;;;;;;;1.48;1.15;;;3.30;99.90;;;;;;4966431;28;20471;-66
2022/01/07 01:53:24;;;;;;;6.47;2.35;;;3.20;99.90;;;;;;4964929;28;20031;-66
2022/01/07 01:55:50;;;;;;;6.63;1.52;;;3.30;99.90;;;;;;4968092;28;20107;-66
2022/01/07 01:58:16;;;;;;;3.05;1.88;;;3.20;99.90;;;;;;4965349;28;20142;-66
2022/01/07 02:00:41;;;;;;;1.80;1.08;;;3.20;99.90;;;;;;4968121;28;20046;-66
2022/01/07 02:03:07;;;;;;;3.78;1.52;;;3.20;99.90;;;;;;4970120;28;20031;-67
2022/01/07 02:05:32;;;;;;;0.95;0.73;;;3.20;99.90;;;;;;4968810;28;20037;-67
2022/01/07 02:07:58;;;;;;;4.93;2.15;;;3.20;99.90;;;;;;4962451;28;20053;-66
2022/01/07 02:10:25;;;;;;;1.15;1.00;;;3.20;99.90;;;;;;4970017;28;20546;-66
2022/01/07 02:12:51;;;;;;;3.42;1.25;;;3.20;99.90;;;;;;4961241;28;20034;-67
2022/01/07 02:15:18;;;;;;;3.70;2.13;;;3.20;99.90;;;;;;4962809;28;20126;-67
2022/01/07 02:17:47;;;;;;;3.88;1.60;;;3.20;99.90;;;;;;4960788;28;20093;-67
2022/01/07 02:20:16;;;;;;;1.30;1.17;;;3.30;99.90;;;;;;4962591;28;20101;-67
2022/01/07 02:22:42;;;;;;;3.63;1.67;;;3.30;99.90;;;;;;4963167;28;20020;-66
2022/01/07 02:25:09;;;;;;;2.50;1.30;;;3.30;99.90;;;;;;4964480;28;20023;-67
2022/01/07 02:27:38;;;;;;;2.95;1.60;;;3.30;99.90;;;;;;4967868;28;20033;-67
2022/01/07 02:30:06;;;;;;;1.80;1.13;;;3.30;99.90;;;;;;4965516;28;20035;-66
2022/01/07 02:32:32;;;;;;;5.95;2.03;;;3.30;99.90;;;;;;4967058;28;20034;-66
2022/01/07 02:34:58;;;;;;;5.60;1.40;;;3.30;99.90;;;;;;4969196;28;20482;-66
2022/01/07 02:37:23;;;;;;;3.63;1.02;;;3.30;99.90;;;;;;4965397;28;20387;-67
2022/01/07 02:39:49;;;;;;;3.38;1.80;;;3.30;99.90;;;;;;4956338;28;20027;-66
2022/01/07 02:42:15;;;;;;;0.93;0.82;;;3.30;99.90;;;;;;4967608;28;20110;-66
2022/01/07 02:44:41;;;;;;;5.05;1.60;;;3.30;99.90;;;;;;4959873;28;20023;-67
2022/01/07 02:47:08;;;;;;;5.95;2.13;;;3.40;99.90;;;;;;4963471;28;20085;-66
2022/01/07 02:49:34;;;;;;;4.22;1.98;;;3.30;99.90;;;;;;4963237;28;20036;-66
2022/01/07 02:52:00;;;;;;;1.48;1.08;;;3.30;99.90;;;;;;4961574;28;20564;-66
2022/01/07 02:54:25;;;;;;;3.30;1.80;;;3.30;99.90;;;;;;4966619;28;20022;-67
2022/01/07 02:56:51;;;;;;;6.07;2.58;;;3.30;99.90;;;;;;4960536;28;20039;-66
2022/01/07 02:59:17;;;;;;;2.75;1.77;;;3.30;99.90;;;;;;4965919;28;20108;-66
2022/01/07 03:01:43;;;;;;;4.78;1.55;;;3.30;99.90;;;;;;4963558;28;20165;-66
2022/01/07 03:04:09;;;;;;;3.08;1.40;;;3.30;99.90;;;;;;4967683;28;20125;-66
2022/01/07 03:06:36;;;;;;;2.15;1.40;;;3.20;99.90;;;;;;4967933;28;20057;-67
2022/01/07 03:09:03;;;;;;;4.75;2.30;;;3.20;99.90;;;;;;4965069;28;20047;-66
2022/01/07 03:11:28;;;;;;;2.08;1.30;;;3.20;99.90;;;;;;4963318;28;20101;-66
2022/01/07 03:13:54;;;;;;;2.15;1.10;;;3.20;99.90;;;;;;4960135;28;20721;-66
2022/01/07 03:16:20;;;;;;;2.47;1.40;;;3.20;99.90;;;;;;4963785;28;20034;-66
2022/01/07 03:18:45;;;;;;;4.50;2.40;;;3.10;99.90;;;;;;4960991;28;20439;-66
2022/01/07 03:21:11;;;;;;;1.70;1.35;;;3.10;99.90;;;;;;4968336;28;20052;-66
2022/01/07 03:23:38;;;;;;;1.65;0.93;;;3.10;99.90;;;;;;4964001;28;20066;-66
2022/01/07 03:26:04;;;;;;;4.68;2.22;;;3.00;99.90;;;;;;4966178;28;20743;-66
2022/01/07 03:28:30;;;;;;;3.83;1.48;;;;;;;;;;4963043;28;20038;-66
2022/01/07 03:30:56;;;;;;;1.95;1.15;;;3.00;99.90;;;;;;4963568;28;20031;-66
2022/01/07 03:33:22;;;;;;;5.00;1.73;;;;;;;;;;4962752;28;20030;-66
2022/01/07 03:35:47;;;;;;;3.60;1.20;;;2.90;99.90;;;;;;4963115;28;20030;-66
2022/01/07 03:38:13;;;;;;;4.07;1.92;;;2.90;99.90;;;;;;4966062;28;20035;-67
2022/01/07 03:40:39;;;;;;;2.63;1.55;;;2.90;99.90;;;;;;4965076;28;20507;-67
2022/01/07 03:43:05;;;;;;;2.90;1.20;;;2.90;99.90;;;;;;4966297;28;20031;-66
2022/01/07 03:45:31;;;;;;;8.95;2.30;;;2.90;99.90;;;;;;4959329;28;20038;-65
2022/01/07 03:47:57;;;;;;;5.15;1.98;;;2.80;99.90;;;;;;4963643;28;20045;-65
2022/01/07 03:50:25;;;;;;;1.70;1.10;;;2.90;99.90;;;;;;4961992;28;20107;-66
2022/01/07 03:52:53;;;;;;;5.47;1.20;;;2.90;99.90;;;;;;4967143;28;20567;-66
2022/01/07 03:55:23;;;;;;;1.40;1.02;;;2.90;99.90;;;;;;4964855;28;20031;-65
2022/01/07 03:57:49;;;;;;;6.75;2.72;;;2.80;99.90;;;;;;4964975;28;20030;-67
2022/01/07 04:00:22;;;;;;;5.00;2.58;;;2.70;99.90;;;;;;4959496;28;20038;-66
2022/01/07 04:02:48;;;;;;;3.58;1.88;;;2.70;99.90;;;;;;4957285;28;20404;-65
2022/01/07 04:05:15;;;;;;;7.35;2.65;;;2.60;99.90;;;;;;4976612;28;20027;-66
2022/01/07 04:07:41;;;;;;;3.78;1.48;;;2.60;99.90;;;;;;4958276;28;20384;-66
2022/01/07 04:10:07;;;;;;;1.10;0.93;;;2.60;99.90;;;;;;4965658;28;20043;-66
2022/01/07 04:12:32;;;;;;;2.08;1.25;;;2.60;99.90;;;;;;4964575;28;20038;-67
2022/01/07 04:15:08;;;;;;;5.53;2.35;;;2.50;99.90;;;;;;4962629;28;20019;-65
2022/01/07 04:17:54;;;;;;;5.25;1.85;;;2.50;99.90;;;;;;4962440;28;20022;-65
2022/01/07 04:20:25;;;;;;;7.13;1.77;;;2.40;99.90;;;;;;4964209;28;20065;-66
2022/01/07 04:22:51;;;;;;;7.82;2.67;;;2.30;99.90;;;;;;4963870;28;20594;-65
2022/01/07 04:25:18;;;;;;;5.15;2.55;;;2.30;99.90;;;;;;4966629;28;20030;-66
2022/01/07 04:28:04;;;;;;;2.88;1.70;;;2.30;99.90;;;;;;4963811;28;20035;-66
2022/01/07 04:30:39;;;;;;;2.00;1.17;;;2.30;99.90;;;;;;4959962;28;20031;-65
2022/01/07 04:33:05;;;;;;;3.85;1.85;;;2.30;99.90;;;;;;4961398;28;20562;-65
2022/01/07 04:35:35;;;;;;;1.63;1.35;;;2.30;99.90;;;;;;4963601;28;20106;-66
2022/01/07 04:38:00;;;;;;;2.38;1.48;;;2.30;99.90;;;;;;4962227;28;20027;-66
2022/01/07 04:40:27;;;;;;;3.10;1.40;;;2.30;99.90;;;;;;4963811;28;20039;-66
2022/01/07 04:42:53;;;;;;;5.63;1.38;;;2.30;99.90;;;;;;4966854;28;20023;-67
2022/01/07 04:45:19;;;;;;;2.05;1.45;;;2.30;99.90;;;;;;4956940;28;20035;-65
2022/01/07 04:47:45;;;;;;;1.88;1.20;;;2.40;99.90;;;;;;4956048;28;20094;-65
2022/01/07 04:50:13;;;;;;;3.60;1.67;;;2.40;99.90;;;;;;4965784;28;20118;-65
2022/01/07 04:52:41;;;;;;;1.75;1.15;;;2.40;99.90;;;;;;4958459;28;20045;-66
2022/01/07 04:55:07;;;;;;;1.85;1.20;;;2.40;99.90;;;;;;4961276;28;20084;-65
2022/01/07 04:57:33;;;;;;;1.63;1.15;;;2.50;99.90;;;;;;4959380;28;20031;-65
2022/01/07 04:59:58;;;;;;;4.00;1.38;;;2.50;99.90;;;;;;4957896;28;20412;-65
2022/01/07 05:02:24;;;;;;;3.72;1.88;;;2.50;99.90;;;;;;4956451;28;20027;-65
2022/01/07 05:04:50;;;;;;;1.75;1.08;;;2.60;99.90;;;;;;4957851;28;20019;-66
2022/01/07 05:07:16;;;;;;;2.53;1.48;;;2.60;99.90;;;;;;4965314;28;20035;-66
2022/01/07 05:09:42;;;;;;;1.27;1.00;;;2.60;99.90;;;;;;4954970;28;20117;-66
2022/01/07 05:12:08;;;;;;;1.65;1.25;;;2.60;99.90;;;;;;4968802;28;20059;-65
2022/01/07 05:14:34;;;;;;;2.13;1.50;;;2.60;99.90;;;;;;4960533;28;20112;-64
2022/01/07 05:16:59;;;;;;;4.90;2.17;;;2.60;99.90;;;;;;4961860;28;20019;-65
2022/01/07 05:19:25;;;;;;;4.95;2.17;;;2.60;99.90;;;;;;4963111;28;20368;-66
2022/01/07 05:21:51;;;;;;;0.80;0.80;;;2.60;99.90;;;;;;4961733;28;20031;-65
2022/01/07 05:24:16;;;;;;;3.88;1.55;;;2.60;99.90;;;;;;4964081;28;20050;-66
2022/01/07 05:26:42;;;;;;;3.33;1.50;;;2.60;99.90;;;;;;4967633;28;20479;-65
2022/01/07 05:29:07;;;;;;;4.25;1.52;;;2.60;99.90;;;;;;4963962;28;20530;-65
2022/01/07 05:31:33;;;;;;;4.85;1.67;;;2.70;99.90;;;;;;4962252;28;20074;-66
2022/01/07 05:33:59;;;;;;;6.70;1.63;;;2.70;99.90;;;;;;4964550;28;20712;-66
2022/01/07 05:36:25;;;;;;;2.55;1.35;;;2.70;99.90;;;;;;4958559;28;20082;-65
2022/01/07 05:38:50;;;;;;;2.50;1.38;;;2.70;99.90;;;;;;4958473;28;20030;-66
2022/01/07 05:41:17;;;;;;;2.55;1.38;;;2.70;99.90;;;;;;4960368;28;20062;-67
2022/01/07 05:43:42;;;;;;;5.07;1.40;;;2.80;99.90;;;;;;4961914;28;20117;-67
2022/01/07 05:46:10;;;;;;;1.75;1.13;;;2.80;99.90;;;;;;4971737;28;20122;-65
2022/01/07 05:48:36;;;;;;;4.72;1.90;;;2.80;99.90;;;;;;4966564;28;20015;-65
2022/01/07 05:51:03;;;;;;;3.88;1.65;;;2.80;99.90;;;;;;4966250;28;20090;-67
2022/01/07 05:53:28;;;;;;;5.55;1.30;;;2.80;99.90;;;;;;4971184;28;20035;-67
2022/01/07 05:55:54;;;;;;;2.70;1.58;;;2.70;99.90;;;;;;4964707;28;20096;-66
2022/01/07 05:58:20;;;;;;;7.38;2.70;;;2.80;99.90;;;;;;4966516;28;20037;-66
2022/01/07 06:00:45;;;;;;;1.90;1.23;;;2.80;99.90;;;;;;4961822;28;20438;-65
2022/01/07 06:03:11;;;;;;;4.93;2.17;;;2.80;99.90;;;;;;4968461;28;20019;-65
2022/01/07 06:05:36;;;;;;;1.63;1.15;;;2.80;99.90;;;;;;4960692;28;20190;-64
2022/01/07 06:08:02;;;;;;;1.60;1.25;;;2.80;99.90;;;;;;4959957;28;20034;-65
2022/01/07 06:10:28;;;;;;;1.00;0.85;;;2.80;99.90;;;;;;4970098;28;20104;-64
2022/01/07 06:12:54;;;;;;;3.03;1.40;;;2.80;99.90;;;;;;4961266;28;20030;-67
2022/01/07 06:15:19;;;;;;;3.55;1.48;;;2.80;99.90;;;;;;4965734;28;20476;-66
2022/01/07 06:17:45;;;;;;;3.45;1.27;;;2.80;99.90;;;;;;4964794;28;20023;-67
2022/01/07 06:20:11;;;;;;;0.68;0.68;;;2.80;99.90;;;;;;4961616;28;20015;-66
2022/01/07 06:22:36;;;;;;;3.45;1.67;;;2.70;99.90;;;;;;4956715;28;20507;-66
2022/01/07 06:25:03;;;;;;;5.15;1.70;;;2.70;99.90;;;;;;4962568;28;20022;-66
2022/01/07 06:27:29;;;;;;;3.35;1.58;;;2.70;99.90;;;;;;4954064;28;20495;-66
2022/01/07 06:29:57;;;;;;;3.17;1.40;;;2.70;99.90;;;;;;4976325;28;20026;-66
2022/01/07 06:32:23;;;;;;;3.60;1.92;;;2.60;99.90;;;;;;4964460;28;20613;-66
2022/01/07 06:34:49;;;;;;;5.50;1.45;;;2.60;99.90;;;;;;4958427;28;20058;-66
2022/01/07 06:37:15;;;;;;;1.55;1.10;;;2.50;99.90;;;;;;4964846;28;20035;-66
2022/01/07 06:39:41;;;;;;;0.80;0.80;;;2.50;99.90;;;;;;4970246;28;20462;-65
2022/01/07 06:42:07;;;;;;;4.78;1.77;;;2.50;99.90;;;;;;4963997;28;20034;-65
2022/01/07 06:44:33;;;;;;;1.33;1.17;;;2.50;99.90;;;;;;4981535;28;20018;-65
2022/01/07 06:46:59;;;;;;;1.75;1.05;;;2.50;99.90;;;;;;4957578;28;20047;-65
2022/01/07 06:49:24;;;;;;;2.30;1.58;;;2.50;99.90;;;;;;4958239;28;20059;-64
2022/01/07 06:51:54;;;;;;;2.15;1.25;;;2.50;99.90;;;;;;4961765;28;20031;-64
2022/01/07 06:54:20;;;;;;;2.65;1.02;;;2.50;99.90;;;;;;4966169;28;20570;-64
2022/01/07 06:56:46;;;;;;;2.95;1.55;;;2.50;99.90;;;;;;4968611;28;20086;-64
2022/01/07 06:59:15;;;;;;;5.13;2.25;;;2.40;99.90;;;;;;4965898;28;20395;-64
2022/01/07 07:01:47;;;;;;;1.02;0.93;;;2.40;99.90;;;;;;4960907;28;20058;-64
2022/01/07 07:04:14;;;;;;;2.30;1.13;;;2.40;99.90;;;;;;4960024;28;20558;-64
2022/01/07 07:06:40;;;;;;;6.40;2.40;;;2.40;99.90;;;;;;4958060;28;20453;-65
2022/01/07 07:09:06;;;;;;;3.25;1.27;;;2.50;99.90;;;;;;4962246;28;20070;-65
2022/01/07 07:11:33;;;;;;;2.45;1.23;;;2.50;99.90;;;;;;4964340;28;20030;-65
2022/01/07 07:13:59;;;;;;;2.33;1.33;;;2.50;99.90;;;;;;4962881;28;20034;-65
2022/01/07 07:16:25;;;;;;;4.07;1.90;;;2.50;99.90;;;;;;4962478;28;20102;-65
2022/01/07 07:18:50;;;;;;;3.40;1.67;;;2.40;99.90;;;;;;4960601;28;20573;-65
2022/01/07 07:21:16;;;;;;;3.10;1.35;;;2.40;99.90;;;;;;4963303;28;21242;-64
2022/01/07 07:23:42;;;;;;;1.02;0.90;;;2.40;99.90;;;;;;4963391;28;20379;-65
2022/01/07 07:26:07;;;;;;;3.15;2.85;;;2.40;99.90;;;;;;4963609;28;20158;-65
2022/01/07 07:28:35;;;;;;;1.48;1.02;;;2.50;99.90;;;;;;4961916;28;20069;-65
2022/01/07 07:31:09;;;;;;;1.77;1.13;;;2.40;99.90;;;;;;4970561;28;20101;-65
2022/01/07 07:36:30;;;;;;;4.70;2.38;;;2.50;99.90;;;;;;4967773;28;20030;-65
2022/01/07 07:39:07;;;;;;;1.25;1.00;;;2.60;99.90;;;;;;4961172;28;20027;-66
2022/01/07 07:41:34;;;;;;;3.25;1.65;;;2.60;99.90;;;;;;4970105;28;20054;-66
2022/01/07 07:44:00;;;;;;;5.57;1.90;;;2.60;99.90;;;;;;4966017;28;20027;-66
2022/01/07 07:46:28;;;;;;;1.45;1.05;;;2.60;99.90;;;;;;4966183;28;20029;-66
2022/01/07 07:48:54;;;;;;;1.15;1.00;;;2.60;99.90;;;;;;4968679;28;20688;-66
2022/01/07 07:51:20;;;;;;;2.63;1.45;;;2.60;99.90;;;;;;4963546;28;20018;-66
2022/01/07 07:53:46;;;;;;;1.95;1.20;;;2.70;99.90;;;;;;4970661;28;20042;-66
2022/01/07 07:56:14;;;;;;;10.15;1.50;;;2.70;99.90;;;;;;4958903;28;20027;-66
2022/01/07 07:58:40;;;;;;;3.30;1.88;;;2.70;99.90;;;;;;4966570;28;20031;-65
2022/01/07 08:01:06;;;;;;;2.95;1.20;;;2.80;99.90;;;;;;4962760;28;20026;-65
2022/01/07 08:03:32;;;;;;;4.10;1.88;;;2.80;99.90;;;;;;4968742;28;20102;-66
2022/01/07 08:05:58;;;;;;;2.15;1.38;;;2.90;99.90;;;;;;4962879;28;20120;-66
2022/01/07 08:08:23;;;;;;;1.10;0.88;;;2.90;99.90;;;;;;4965649;28;20473;-66
2022/01/07 08:10:55;;;;;;;5.03;2.17;;;2.90;99.90;;;;;;4966004;28;20049;-65
2022/01/07 08:13:31;;;;;;;2.55;1.58;;;2.90;99.90;;;;;;4964824;28;20027;-66
2022/01/07 08:16:06;;;;;;;2.15;1.25;;;2.90;99.90;;;;;;4962468;28;20050;-66
2022/01/07 08:18:36;;;;;;;4.55;1.45;;;3.00;99.90;;;;;;4963240;28;20392;-65
2022/01/07 08:21:10;;;;;;;4.15;1.58;;;3.00;99.90;;;;;;4959934;28;20494;-65
2022/01/07 08:23:40;;;;;;;3.08;1.55;;;3.00;99.90;;;;;;4969460;28;20078;-65
2022/01/07 08:26:09;;;;;;;2.92;1.60;;;3.10;99.90;;;;;;4966858;28;20247;-65
2022/01/07 08:28:43;;;;;;;3.28;1.45;;;3.10;99.90;;;;;;4968749;28;20114;-65
2022/01/07 08:36:23;;;;;;;5.10;1.20;;;3.20;99.90;;;;;;4966417;28;20585;-65
2022/01/07 08:38:50;;;;;;;2.35;1.02;;;3.20;99.90;;;;;;4966330;28;20032;-65
2022/01/07 08:41:17;;;;;;;1.60;1.27;;;3.30;99.90;;;;;;4971733;28;20027;-65
2022/01/07 08:43:43;;;;;;;3.15;1.65;;;3.30;99.90;;;;;;4964742;28;20019;-65
2022/01/07 08:46:09;;;;;;;1.63;1.17;;;3.30;99.90;;;;;;4978610;28;20051;-65
2022/01/07 08:48:36;;;;;;;3.25;1.48;;;3.30;99.90;;;;;;4956135;28;20039;-65
2022/01/07 08:51:03;;;;;;;1.33;0.88;;;3.30;99.90;;;;;;4959662;28;20517;-65
2022/01/07 08:53:29;;;;;;;1.30;1.05;;;3.30;99.90;;;;;;4955371;28;20089;-65
2022/01/07 08:55:54;;;;;;;3.75;1.60;;;3.30;99.90;;;;;;4957742;28;20110;-65
2022/01/07 08:58:20;;;;;;;1.58;1.00;;;3.30;99.90;;;;;;4982277;28;20031;-65
2022/01/07 09:00:47;;;;;;;3.28;2.08;;;3.30;99.90;;;;;;4968036;28;20027;-64
2022/01/07 09:03:13;;;;;;;4.03;1.88;;;3.40;99.90;;;;;;4982595;28;20059;-64
2022/01/07 09:05:39;;;;;;;1.80;1.17;;;3.30;99.90;;;;;;4967605;28;20118;-64
2022/01/07 09:08:07;;;;;;;1.60;1.30;;;3.40;99.90;;;;;;4963600;28;20043;-64
2022/01/07 09:10:33;;;;;;;2.95;1.70;;;3.40;99.90;;;;;;4951886;28;20598;-64
2022/01/07 09:12:58;;;;;;;3.33;1.85;;;3.40;99.90;;;;;;4963737;28;20098;-64
2022/01/07 09:15:24;;;;;;;3.55;2.00;;;3.40;99.90;;;;;;4963789;28;20399;-64
2022/01/07 09:17:50;;;;;;;3.17;1.38;;;3.40;99.90;;;;;;4963598;28;20104;-63
2022/01/07 09:20:16;;;;;;;6.72;2.65;;;3.40;99.90;;;;;;4972815;28;20033;-63
2022/01/07 09:22:42;;;;;;;3.10;1.75;;;3.40;99.90;;;;;;4968954;28;20549;-63
2022/01/07 09:25:07;;;;;;;4.18;1.83;;;3.40;99.90;;;;;;4965942;28;20027;-63
2022/01/07 09:27:33;;;;;;;0.77;0.77;;;3.50;99.90;;;;;;4971684;28;20038;-63
2022/01/07 09:29:59;;;;;;;4.80;2.42;;;3.40;99.90;;;;;;4967885;28;20034;-63
2022/01/07 09:32:25;;;;;;;4.03;2.13;;;3.60;99.90;;;;;;4968903;28;20027;-64
2022/01/07 09:34:51;;;;;;;3.28;1.70;;;3.50;99.90;;;;;;4967142;28;20080;-64
2022/01/07 09:37:16;;;;;;;3.88;1.63;;;3.60;99.90;;;;;;4965266;28;20065;-64
2022/01/07 09:39:42;;;;;;;3.60;1.90;;;3.70;99.90;;;;;;4969882;28;20114;-64
2022/01/07 09:42:08;;;;;;;4.82;2.33;;;3.80;99.90;;;;;;4966729;28;20153;-64
2022/01/07 09:44:41;;;;;;;5.18;2.28;;;3.90;99.90;;;;;;4964225;28;20698;-63
2022/01/07 09:47:08;;;;;;;6.32;2.53;;;3.80;99.90;;;;;;4968220;28;20024;-64
2022/01/07 09:49:34;;;;;;;3.75;1.48;;;3.80;99.90;;;;;;4966163;28;20035;-64
2022/01/07 09:52:04;;;;;;;3.35;1.70;;;3.90;99.90;;;;;;4963182;28;20039;-65
2022/01/07 09:54:30;;;;;;;4.53;1.77;;;4.00;99.90;;;;;;4971644;28;20438;-64
2022/01/07 09:56:55;;;;;;;1.20;1.00;;;4.10;99.90;;;;;;4969386;28;20391;-64
2022/01/07 09:59:22;;;;;;;2.05;1.35;;;4.30;99.90;;;;;;4971828;28;20027;-64
2022/01/07 10:02:01;;;;;;;3.15;1.52;;;4.10;99.90;;;;;;4964763;28;20100;-64
2022/01/07 10:04:41;;;;;;;6.13;1.75;;;4.10;99.90;;;;;;4970077;28;20023;-64
2022/01/07 10:07:24;;;;;;;5.25;1.65;;;4.00;99.90;;;;;;4964061;28;20720;-64
2022/01/07 10:10:03;;;;;;;1.67;1.10;;;4.00;99.90;;;;;;4966644;28;20047;-64
2022/01/07 10:12:32;;;;;;;1.25;1.10;;;4.10;99.90;;;;;;4963358;28;20149;-64
2022/01/07 10:15:31;;;;;;;3.60;1.77;;;4.10;99.90;;;;;;4967960;28;20031;-64
2022/01/07 10:18:09;;;;;;;3.05;1.10;;;4.00;99.90;;;;;;4933158;28;20074;-64
2022/01/07 10:20:41;;;;;;;1.75;1.20;;;3.90;99.90;;;;;;4959018;28;20046;-63
2022/01/07 10:23:10;;;;;;;2.05;1.25;;;4.10;99.90;;;;;;4958270;28;20115;-63
2022/01/07 10:25:39;;;;;;;3.63;1.58;;;4.10;99.90;;;;;;4960961;28;20109;-63
2022/01/07 10:28:08;;;;;;;6.38;1.55;;;4.10;99.90;;;;;;4966534;28;20035;-64
2022/01/07 10:30:42;;;;;;;3.05;1.40;;;4.10;99.90;;;;;;4975258;28;20109;-64
2022/01/07 10:33:25;;;;;;;1.77;1.02;;;4.30;99.90;;;;;;4966317;28;20115;-63
2022/01/07 10:36:11;;;;;;;3.33;1.58;;;4.40;99.90;;;;;;4964100;28;20039;-64
2022/01/07 10:38:52;;;;;;;1.27;1.00;;;4.30;99.90;;;;;;4952617;28;20103;-64
2022/01/07 10:41:19;;;;;;;1.15;0.98;;;4.30;99.90;;;;;;4965566;28;20675;-64
2022/01/07 10:43:46;;;;;;;3.90;1.52;;;4.30;99.90;;;;;;4964230;28;20475;-65
2022/01/07 10:46:11;;;;;;;3.47;1.63;;;4.30;99.90;;;;;;4967503;28;20101;-66
2022/01/07 10:48:44;;;;;;;3.60;1.58;;;4.20;99.90;;;;;;4971258;28;20027;-65
2022/01/07 10:51:11;;;;;;;4.15;1.63;;;4.10;99.90;;;;;;4961627;28;20457;-65
2022/01/07 10:53:38;;;;;;;0.80;0.80;;;4.00;99.90;;;;;;4966249;28;20508;-65
2022/01/07 10:56:12;;;;;;;1.45;1.20;;;4.10;99.90;;;;;;4955660;28;20719;-65
2022/01/07 10:58:46;;;;;;;3.65;1.42;;;4.20;99.90;;;;;;4954029;28;20031;-65
2022/01/07 11:01:21;;;;;;;2.63;1.33;;;4.20;99.90;;;;;;4955953;28;20135;-66
2022/01/07 11:03:52;;;;;;;1.60;1.02;;;4.40;99.90;;;;;;4956811;28;20025;-66
2022/01/07 11:06:19;;;;;;;4.00;1.50;;;4.40;99.90;;;;;;4960638;28;20423;-65
2022/01/07 11:08:48;;;;;;;4.05;2.05;;;4.50;99.90;;;;;;4954232;28;20047;-65
2022/01/07 11:11:14;;;;;;;2.95;1.55;;;4.50;99.90;;;;;;4956307;28;20035;-65
2022/01/07 11:13:41;;;;;;;1.08;0.88;;;4.50;99.90;;;;;;4964276;28;20839;-65
2022/01/07 11:16:07;;;;;;;6.35;1.48;;;4.60;99.90;;;;;;4958426;28;20126;-66
2022/01/07 11:18:37;;;;;;;3.30;1.40;;;4.60;99.90;;;;;;4973974;28;20110;-65
2022/01/07 11:21:04;;;;;;;2.47;1.38;;;4.60;99.90;;;;;;4967483;28;20027;-66
2022/01/07 11:23:31;;;;;;;3.60;1.58;;;4.60;99.90;;;;;;4965933;28;20082;-68
2022/01/07 11:26:01;;;;;;;2.38;1.33;;;4.60;99.90;;;;;;4968160;28;20038;-66
2022/01/07 11:28:28;;;;;;;3.30;1.75;;;4.60;99.90;;;;;;4970259;28;20113;-66
2022/01/07 11:31:12;;;;;;;2.47;1.15;;;4.60;99.90;;;;;;4966636;28;20034;-66
2022/01/07 11:33:38;;;;;;;1.58;0.95;;;4.60;99.90;;;;;;4962731;28;20030;-66
2022/01/07 11:36:04;;;;;;;4.45;2.08;;;4.50;99.90;;;;;;4957845;28;20046;-65
2022/01/07 11:38:35;;;;;;;1.20;1.00;;;4.50;99.90;;;;;;4967216;28;20082;-65
2022/01/07 11:41:02;;;;;;;2.20;1.10;;;4.50;99.90;;;;;;4959644;28;20110;-66
2022/01/07 11:43:39;;;;;;;5.05;2.00;;;4.50;99.90;;;;;;4967227;28;20039;-66
2022/01/07 11:46:22;;;;;;;2.92;1.70;;;4.50;99.90;;;;;;4962527;28;20118;-66
2022/01/07 11:48:48;;;;;;;1.45;1.00;;;4.50;99.90;;;;;;4977498;28;20483;-66
2022/01/07 11:51:16;;;;;;;4.18;1.83;;;4.50;99.90;;;;;;4963670;28;20023;-65
2022/01/07 11:53:42;;;;;;;3.30;1.85;;;4.60;99.90;;;;;;4958579;28;20035;-66
2022/01/07 11:56:14;;;;;;;1.90;1.10;;;4.60;99.90;;;;;;4963489;28;20037;-66
2022/01/07 11:58:51;;;;;;;1.75;1.10;;;4.60;99.90;;;;;;4957670;28;20089;-65
2022/01/07 12:01:37;;;;;;;2.17;1.30;;;4.70;99.90;;;;;;4969780;28;20109;-65
2022/01/07 12:04:21;;;;;;;5.45;1.77;;;4.70;99.90;;;;;;4962013;28;20027;-66
2022/01/07 12:06:49;;;;;;;2.22;1.38;;;4.80;99.90;;;;;;4965006;28;20486;-65
2022/01/07 12:09:19;;;;;;;2.13;1.10;;;4.80;99.90;;;;;;4962153;28;20044;-65
2022/01/07 12:11:58;;;;;;;3.15;1.38;;;4.70;99.90;;;;;;4967984;28;20003;-65
2022/01/07 12:14:51;;;;;;;2.00;1.00;;;4.70;99.90;;;;;;4966276;28;20034;-65
2022/01/07 12:17:19;;;;;;;2.95;1.65;;;4.80;99.90;;;;;;4964757;28;20479;-65
2022/01/07 12:19:48;;;;;;;2.10;0.95;;;4.60;99.90;;;;;;4966091;28;20031;-65
2022/01/07 12:22:16;;;;;;;7.95;3.20;;;4.50;99.90;;;;;;4965684;28;20047;-63
2022/01/07 12:24:43;;;;;;;2.45;1.23;;;4.50;99.90;;;;;;4962719;28;20055;-63
2022/01/07 12:27:13;;;;;;;5.05;2.28;;;4.60;99.90;;;;;;4966698;28;20118;-62
2022/01/07 12:29:44;;;;;;;4.15;1.58;;;4.70;99.90;;;;;;4963771;28;20042;-63
2022/01/07 12:32:13;;;;;;;4.20;1.83;;;4.60;99.90;;;;;;4966553;28;20062;-63
2022/01/07 12:34:43;;;;;;;3.03;1.40;;;4.60;99.90;;;;;;4966344;28;20047;-63
2022/01/07 12:37:11;;;;;;;2.42;1.33;;;4.60;99.90;;;;;;4962096;28;20055;-63
2022/01/07 12:39:41;;;;;;;2.53;1.33;;;4.70;99.90;;;;;;4964925;28;20050;-63
2022/01/07 12:42:07;;;;;;;2.63;1.55;;;4.70;99.90;;;;;;4965406;28;20046;-63
2022/01/07 12:44:35;;;;;;;2.33;1.10;;;4.70;99.90;;;;;;4966232;28;20080;-63
2022/01/07 12:47:01;;;;;;;2.63;1.33;;;4.70;99.90;;;;;;4966181;28;20035;-63
2022/01/07 12:49:37;;;;;;;1.63;1.23;;;4.80;99.90;;;;;;4967086;28;20458;-63
2022/01/07 12:52:04;;;;;;;2.15;1.50;;;4.80;99.90;;;;;;4959990;28;20020;-63
2022/01/07 12:54:30;;;;;;;3.60;1.30;;;4.60;99.90;;;;;;4966289;28;20034;-63
2022/01/07 12:56:55;;;;;;;4.05;1.90;;;4.60;99.90;;;;;;4965784;28;20030;-63
2022/01/07 12:59:25;;;;;;;3.72;1.35;;;4.50;99.90;;;;;;4963169;28;20037;-63
2022/01/07 13:01:51;;;;;;;3.25;1.38;;;4.50;99.90;;;;;;4964293;28;20041;-64
2022/01/07 13:04:19;;;;;;;7.60;2.03;;;4.50;99.90;;;;;;4967383;28;20414;-64
2022/01/07 13:06:56;;;;;;;3.38;1.02;;;4.60;99.90;;;;;;4964552;28;20074;-64
2022/01/07 13:09:22;;;;;;;0.93;0.82;;;4.60;99.90;;;;;;4965104;28;20511;-64